createdAt,value
2017-10-10T00:02:19.147Z,9.20
2017-10-10T00:04:47.510Z,9.20
2017-10-10T00:07:16.163Z,9.10
2017-10-10T00:09:44.535Z,9.30
2017-10-10T00:12:13.032Z,9.20
2017-10-10T00:14:41.423Z,9.20
2017-10-10T00:17:09.791Z,9.30
2017-10-10T00:19:38.201Z,9.40
2017-10-10T00:22:06.569Z,9.40
2017-10-10T00:24:34.950Z,9.30
2017-10-10T00:27:03.331Z,9.30
2017-10-10T00:29:32.466Z,9.10
2017-10-10T00:32:00.995Z,9.10
2017-10-10T00:34:29.370Z,9.10
2017-10-10T00:36:57.733Z,9.10
2017-10-10T00:39:26.136Z,9.20
2017-10-10T00:41:54.514Z,9.20
2017-10-10T00:44:23.066Z,9.20
2017-10-10T00:46:51.431Z,9.20
2017-10-10T00:49:19.806Z,9.30
2017-10-10T00:51:48.209Z,9.20
2017-10-10T00:54:16.609Z,9.20
2017-10-10T00:56:45.064Z,9.20
2017-10-10T00:59:13.453Z,9.20
2017-10-10T01:01:41.838Z,9.30
2017-10-10T01:04:10.235Z,9.30
2017-10-10T01:06:38.607Z,9.20
2017-10-10T01:09:07.206Z,9.20
2017-10-10T01:11:35.648Z,9.20
2017-10-10T01:14:04.027Z,9.20
2017-10-10T01:16:32.434Z,9.20
2017-10-10T01:19:02.316Z,9.20
2017-10-10T01:21:30.895Z,9.20
2017-10-10T01:23:59.262Z,9.20
2017-10-10T01:26:27.639Z,9.20
2017-10-10T01:28:56.037Z,9.20
2017-10-10T01:31:24.422Z,9.30
2017-10-10T01:33:52.901Z,9.20
2017-10-10T01:36:21.273Z,9.20
2017-10-10T01:38:49.636Z,9.10
2017-10-10T01:41:18.042Z,9.10
2017-10-10T01:43:46.418Z,9.10
2017-10-10T01:46:15.081Z,9.10
2017-10-10T01:48:43.457Z,9.10
2017-10-10T01:51:11.833Z,9.10
2017-10-10T01:53:40.341Z,9.00
2017-10-10T01:56:08.707Z,9.00
2017-10-10T01:58:37.288Z,8.90
2017-10-10T02:01:05.676Z,9.00
2017-10-10T02:03:34.054Z,8.90
2017-10-10T02:06:02.442Z,8.80
2017-10-10T02:08:30.821Z,8.80
2017-10-10T02:10:59.401Z,8.70
2017-10-10T02:13:27.775Z,8.70
2017-10-10T02:15:56.144Z,8.60
2017-10-10T02:18:24.625Z,8.60
2017-10-10T02:20:53.000Z,8.60
2017-10-10T02:23:21.583Z,8.60
2017-10-10T02:25:49.960Z,8.70
2017-10-10T02:28:18.334Z,8.60
2017-10-10T02:30:46.725Z,8.60
2017-10-10T02:33:15.101Z,8.60
2017-10-10T02:35:43.514Z,8.80
2017-10-10T02:38:12.659Z,8.70
2017-10-10T02:40:41.047Z,8.70
2017-10-10T02:43:09.446Z,8.80
2017-10-10T02:45:37.810Z,8.80
2017-10-10T02:48:06.223Z,8.80
2017-10-10T02:50:34.600Z,8.70
2017-10-10T02:53:02.968Z,8.70
2017-10-10T02:55:31.354Z,8.70
2017-10-10T02:57:59.727Z,8.70
2017-10-10T03:00:28.282Z,8.80
2017-10-10T03:02:56.643Z,8.80
2017-10-10T03:05:25.014Z,8.90
2017-10-10T03:07:53.394Z,8.90
2017-10-10T03:10:21.764Z,8.80
2017-10-10T03:12:50.382Z,9.00
2017-10-10T03:15:18.738Z,9.00
2017-10-10T03:17:47.102Z,9.00
2017-10-10T03:20:16.255Z,9.00
2017-10-10T03:22:44.706Z,8.90
2017-10-10T03:25:13.300Z,9.00
2017-10-10T03:27:42.568Z,9.00
2017-10-10T03:30:10.989Z,9.00
2017-10-10T03:32:39.384Z,9.00
2017-10-10T03:35:07.758Z,9.10
2017-10-10T03:37:37.843Z,9.10
2017-10-10T03:40:06.237Z,9.10
2017-10-10T03:42:34.634Z,9.10
2017-10-10T03:45:03.024Z,9.10
2017-10-10T03:47:31.417Z,9.10
2017-10-10T03:50:00.752Z,9.00
2017-10-10T03:52:29.141Z,9.00
2017-10-10T03:54:57.505Z,9.10
2017-10-10T03:57:25.902Z,9.20
2017-10-10T03:59:54.289Z,9.10
2017-10-10T04:02:22.694Z,9.10
2017-10-10T04:04:51.068Z,9.10
2017-10-10T04:07:19.472Z,9.20
2017-10-10T04:09:49.048Z,9.10
2017-10-10T04:12:17.417Z,9.10
2017-10-10T04:14:46.079Z,9.10
2017-10-10T04:17:14.453Z,9.20
2017-10-10T04:19:42.818Z,9.10
2017-10-10T04:22:11.215Z,9.00
2017-10-10T04:24:39.580Z,9.00
2017-10-10T04:27:07.999Z,9.10
2017-10-10T04:29:36.371Z,9.10
2017-10-10T04:32:05.370Z,9.10
2017-10-10T04:34:33.763Z,9.10
2017-10-10T04:37:02.143Z,9.10
2017-10-10T04:39:30.787Z,9.00
2017-10-10T04:41:59.150Z,9.10
2017-10-10T04:44:27.514Z,9.10
2017-10-10T04:46:55.906Z,9.10
2017-10-10T04:49:24.270Z,9.00
2017-10-10T04:51:52.687Z,9.00
2017-10-10T04:54:21.061Z,9.00
2017-10-10T04:56:49.436Z,9.10
2017-10-10T04:59:17.936Z,9.10
2017-10-10T05:01:46.303Z,9.00
2017-10-10T05:04:15.086Z,9.20
2017-10-10T05:06:43.452Z,9.30
2017-10-10T05:09:11.821Z,9.40
2017-10-10T05:11:40.234Z,9.30
2017-10-10T05:14:08.602Z,9.30
2017-10-10T05:16:37.023Z,9.20
2017-10-10T05:19:06.174Z,9.20
2017-10-10T05:21:34.584Z,9.20
2017-10-10T05:24:03.036Z,9.10
2017-10-10T05:26:31.419Z,9.10
2017-10-10T05:29:00.207Z,9.00
2017-10-10T05:31:28.696Z,9.10
2017-10-10T05:33:57.211Z,9.00
2017-10-10T05:36:26.463Z,9.00
2017-10-10T05:38:54.874Z,9.00
2017-10-10T05:41:24.052Z,9.10
2017-10-10T05:43:52.426Z,9.10
2017-10-10T05:46:20.808Z,9.10
2017-10-10T05:48:49.221Z,9.00
2017-10-10T05:51:17.623Z,9.00
2017-10-10T05:53:46.250Z,9.10
2017-10-10T05:56:14.626Z,9.10
2017-10-10T05:58:43.004Z,9.10
2017-10-10T06:01:11.410Z,9.10
2017-10-10T06:03:40.119Z,9.10
2017-10-10T06:06:09.271Z,9.10
2017-10-10T06:08:37.648Z,9.10
2017-10-10T06:11:06.074Z,9.20
2017-10-10T06:13:35.252Z,9.30
2017-10-10T06:16:03.647Z,9.30
2017-10-10T06:18:33.066Z,9.30
2017-10-10T06:21:01.487Z,9.30
2017-10-10T06:23:29.872Z,9.40
2017-10-10T06:25:58.375Z,9.50
2017-10-10T06:28:27.530Z,9.50
2017-10-10T06:30:56.209Z,9.50
2017-10-10T06:33:24.578Z,9.50
2017-10-10T06:35:52.952Z,9.60
2017-10-10T06:38:21.352Z,9.70
2017-10-10T06:40:49.744Z,9.90
2017-10-10T06:43:18.304Z,9.80
2017-10-10T06:45:46.691Z,9.80
2017-10-10T06:48:15.139Z,9.90
2017-10-10T06:50:43.539Z,9.90
2017-10-10T06:53:11.948Z,10.00
2017-10-10T06:55:40.813Z,10.20
2017-10-10T06:58:09.194Z,10.30
2017-10-10T07:00:37.607Z,10.40
2017-10-10T07:03:06.007Z,10.40
2017-10-10T07:05:35.891Z,10.50
2017-10-10T07:08:04.446Z,10.50
2017-10-10T07:10:32.823Z,10.70
2017-10-10T07:13:01.239Z,10.70
2017-10-10T07:15:29.684Z,10.80
2017-10-10T07:17:58.063Z,10.90
2017-10-10T07:20:26.750Z,11.10
2017-10-10T07:22:55.135Z,11.10
2017-10-10T07:25:23.515Z,11.10
2017-10-10T07:27:51.916Z,11.20
2017-10-10T07:30:20.300Z,11.30
2017-10-10T07:32:48.729Z,11.40
2017-10-10T07:35:17.108Z,11.70
2017-10-10T07:37:45.484Z,11.40
2017-10-10T07:40:13.982Z,11.90
2017-10-10T07:42:42.363Z,12.50
2017-10-10T07:45:11.040Z,12.60
2017-10-10T07:47:39.429Z,12.40
2017-10-10T07:50:07.806Z,12.10
2017-10-10T07:52:36.214Z,12.10
2017-10-10T07:55:04.595Z,12.40
2017-10-10T07:57:33.024Z,12.40
2017-10-10T08:00:01.404Z,12.50
2017-10-10T08:02:29.787Z,12.40
2017-10-10T08:04:58.209Z,12.10
2017-10-10T08:07:26.612Z,11.90
2017-10-10T08:09:55.813Z,12.10
2017-10-10T08:12:24.231Z,12.00
2017-10-10T08:14:52.623Z,12.20
2017-10-10T08:17:21.030Z,12.10
2017-10-10T08:19:49.411Z,12.30
2017-10-10T08:22:18.606Z,14.30
2017-10-10T08:24:47.768Z,14.40
2017-10-10T08:27:16.155Z,14.40
2017-10-10T08:29:44.565Z,14.90
2017-10-10T08:32:13.714Z,16.20
2017-10-10T08:34:42.283Z,16.10
2017-10-10T08:37:10.675Z,16.90
2017-10-10T08:39:39.047Z,16.60
2017-10-10T08:42:07.507Z,16.40
2017-10-10T08:44:35.908Z,16.70
2017-10-10T08:47:04.363Z,16.80
2017-10-10T08:49:32.747Z,17.60
2017-10-10T08:52:01.141Z,17.00
2017-10-10T08:54:29.553Z,17.10
2017-10-10T08:56:58.015Z,17.30
2017-10-10T08:59:26.588Z,16.60
2017-10-10T09:01:54.968Z,16.30
2017-10-10T09:04:23.352Z,16.00
2017-10-10T09:06:51.764Z,15.70
2017-10-10T09:09:20.139Z,15.80
2017-10-10T09:11:48.895Z,15.30
2017-10-10T09:14:17.274Z,15.00
2017-10-10T09:16:45.656Z,14.70
2017-10-10T09:19:14.067Z,14.80
2017-10-10T09:21:42.455Z,14.80
2017-10-10T09:24:11.816Z,15.70
2017-10-10T09:26:40.223Z,15.70
2017-10-10T09:29:08.608Z,15.90
2017-10-10T09:31:37.826Z,15.40
2017-10-10T09:34:06.196Z,15.40
2017-10-10T09:36:35.640Z,15.70
2017-10-10T09:39:04.129Z,15.70
2017-10-10T09:41:32.507Z,15.80
2017-10-10T09:44:00.897Z,16.20
2017-10-10T09:46:29.278Z,15.90
2017-10-10T09:48:57.830Z,16.10
2017-10-10T09:51:26.205Z,15.90
2017-10-10T09:53:54.592Z,15.80
2017-10-10T09:56:22.994Z,16.10
2017-10-10T09:58:51.376Z,16.30
2017-10-10T10:01:20.140Z,16.00
2017-10-10T10:03:48.526Z,16.00
2017-10-10T10:06:16.912Z,16.00
2017-10-10T10:08:45.328Z,15.90
2017-10-10T10:11:14.480Z,15.40
2017-10-10T10:13:43.160Z,15.40
2017-10-10T10:16:11.540Z,15.00
2017-10-10T10:18:39.924Z,14.80
2017-10-10T10:21:08.326Z,15.00
2017-10-10T10:23:36.716Z,15.00
2017-10-10T10:26:05.142Z,14.70
2017-10-10T10:28:33.534Z,14.40
2017-10-10T10:31:02.024Z,14.30
2017-10-10T10:33:30.436Z,14.40
2017-10-10T10:35:58.833Z,14.60
2017-10-10T10:38:28.269Z,14.90
2017-10-10T10:40:56.649Z,14.90
2017-10-10T10:43:25.038Z,14.70
2017-10-10T10:45:53.447Z,14.50
2017-10-10T10:48:21.896Z,14.40
2017-10-10T10:50:50.581Z,14.50
2017-10-10T10:53:18.967Z,14.40
2017-10-10T10:55:47.354Z,14.50
2017-10-10T10:58:15.775Z,14.50
2017-10-10T11:00:44.916Z,14.10
2017-10-10T11:03:13.696Z,14.10
2017-10-10T11:05:42.072Z,14.10
2017-10-10T11:08:10.455Z,14.00
2017-10-10T11:10:38.866Z,14.20
2017-10-10T11:13:07.234Z,14.20
2017-10-10T11:15:35.976Z,14.30
2017-10-10T11:18:04.354Z,14.30
2017-10-10T11:20:32.730Z,14.30
2017-10-10T11:23:01.143Z,14.40
2017-10-10T11:25:29.539Z,14.40
2017-10-10T11:27:58.102Z,14.30
2017-10-10T11:30:26.476Z,14.30
2017-10-10T11:32:54.863Z,14.30
2017-10-10T11:35:23.258Z,14.30
2017-10-10T11:37:51.647Z,14.10
2017-10-10T11:40:20.220Z,14.10
2017-10-10T11:42:48.599Z,14.00
2017-10-10T11:45:16.980Z,14.00
2017-10-10T11:47:45.386Z,13.90
2017-10-10T11:50:13.763Z,13.80
2017-10-10T11:52:43.316Z,14.10
2017-10-10T11:55:11.696Z,14.10
2017-10-10T11:57:40.071Z,14.30
2017-10-10T12:00:08.479Z,14.30
2017-10-10T12:02:36.862Z,14.50
2017-10-10T12:05:05.511Z,14.60
2017-10-10T12:07:33.897Z,14.60
2017-10-10T12:10:02.280Z,14.80
2017-10-10T12:12:30.716Z,15.10
2017-10-10T12:14:59.109Z,15.30
2017-10-10T12:17:27.811Z,15.50
2017-10-10T12:19:56.211Z,15.20
2017-10-10T12:22:24.591Z,14.90
2017-10-10T12:24:52.988Z,14.90
2017-10-10T12:27:21.367Z,14.80
2017-10-10T12:29:50.032Z,14.70
2017-10-10T12:32:18.410Z,14.60
2017-10-10T12:34:46.791Z,14.60
2017-10-10T12:37:15.181Z,14.70
2017-10-10T12:39:43.604Z,14.60
2017-10-10T12:42:12.224Z,14.50
2017-10-10T12:44:40.613Z,14.30
2017-10-10T12:47:08.987Z,14.30
2017-10-10T12:49:38.395Z,14.40
2017-10-10T12:52:06.784Z,14.50
2017-10-10T12:54:35.444Z,14.50
2017-10-10T12:57:03.829Z,14.60
2017-10-10T12:59:32.224Z,14.70
2017-10-10T13:02:00.663Z,14.80
2017-10-10T13:04:30.793Z,14.90
2017-10-10T13:06:59.484Z,14.90
2017-10-10T13:09:27.868Z,15.00
2017-10-10T13:11:56.247Z,15.00
2017-10-10T13:14:24.652Z,14.80
2017-10-10T13:16:53.819Z,14.50
2017-10-10T13:19:22.254Z,14.50
2017-10-10T13:21:50.679Z,14.50
2017-10-10T13:24:19.090Z,14.40
2017-10-10T13:26:48.272Z,14.30
2017-10-10T13:29:16.665Z,14.30
2017-10-10T13:31:45.320Z,14.30
2017-10-10T13:34:13.698Z,14.30
2017-10-10T13:36:42.092Z,14.40
2017-10-10T13:39:10.525Z,14.50
2017-10-10T13:41:38.925Z,14.50
2017-10-10T13:44:07.715Z,14.70
2017-10-10T13:46:36.094Z,14.60
2017-10-10T13:49:04.575Z,14.60
2017-10-10T13:51:33.012Z,14.60
2017-10-10T13:54:01.412Z,14.60
2017-10-10T13:56:30.225Z,14.70
2017-10-10T13:58:58.601Z,14.60
2017-10-10T14:01:26.988Z,14.60
2017-10-10T14:03:55.408Z,14.60
2017-10-10T14:06:24.563Z,14.70
2017-10-10T14:08:53.327Z,14.70
2017-10-10T14:11:21.726Z,14.80
2017-10-10T14:13:50.119Z,14.80
2017-10-10T14:16:18.527Z,14.80
2017-10-10T14:18:47.713Z,14.80
2017-10-10T14:21:16.319Z,14.80
2017-10-10T14:23:44.752Z,14.80
2017-10-10T14:26:13.158Z,14.80
2017-10-10T14:28:42.332Z,14.60
2017-10-10T14:31:10.735Z,14.60
2017-10-10T14:33:39.928Z,14.60
2017-10-10T14:36:08.380Z,14.60
2017-10-10T14:38:36.767Z,14.70
2017-10-10T14:41:05.176Z,14.70
2017-10-10T14:43:34.321Z,14.70
2017-10-10T14:46:02.728Z,14.80
2017-10-10T14:48:31.113Z,14.70
2017-10-10T14:50:59.497Z,14.70
2017-10-10T14:53:27.904Z,14.70
2017-10-10T14:55:56.305Z,14.70
2017-10-10T14:58:24.751Z,14.60
2017-10-10T15:00:53.139Z,14.60
2017-10-10T15:03:21.520Z,14.60
2017-10-10T15:05:49.911Z,14.60
2017-10-10T15:08:18.293Z,14.50
2017-10-10T15:10:46.667Z,14.50
2017-10-10T15:13:15.087Z,14.40
2017-10-10T15:15:43.465Z,14.40
2017-10-10T15:18:12.137Z,14.40
2017-10-10T15:20:40.513Z,14.30
2017-10-10T15:23:08.910Z,14.30
2017-10-10T15:25:37.326Z,14.20
2017-10-10T15:28:06.467Z,14.00
2017-10-10T15:30:35.087Z,14.00
2017-10-10T15:33:03.471Z,14.00
2017-10-10T15:35:32.642Z,13.90
2017-10-10T15:38:01.056Z,13.90
2017-10-10T15:40:30.204Z,13.90
2017-10-10T15:42:58.991Z,13.90
2017-10-10T15:45:27.390Z,13.90
2017-10-10T15:47:55.791Z,13.90
2017-10-10T15:50:24.970Z,13.80
2017-10-10T15:52:54.066Z,13.80
2017-10-10T15:55:22.721Z,13.70
2017-10-10T15:57:51.100Z,13.70
2017-10-10T16:00:19.513Z,13.70
2017-10-10T16:02:47.919Z,13.70
2017-10-10T16:05:16.311Z,13.60
2017-10-10T16:07:45.023Z,13.60
2017-10-10T16:10:13.414Z,13.60
2017-10-10T16:12:41.839Z,13.50
2017-10-10T16:15:11.006Z,13.50
2017-10-10T16:17:39.386Z,13.40
2017-10-10T16:20:07.987Z,13.40
2017-10-10T16:22:37.143Z,13.30
2017-10-10T16:25:05.525Z,13.30
2017-10-10T16:27:33.936Z,13.30
2017-10-10T16:30:03.098Z,13.20
2017-10-10T16:32:31.782Z,13.20
2017-10-10T16:35:00.164Z,13.20
2017-10-10T16:37:28.547Z,13.20
2017-10-10T16:39:58.019Z,13.10
2017-10-10T16:42:26.916Z,13.10
2017-10-10T16:44:57.852Z,13.10
2017-10-10T16:47:26.259Z,13.00
2017-10-10T16:49:54.731Z,13.00
2017-10-10T16:52:23.142Z,12.90
2017-10-10T16:54:52.305Z,12.90
2017-10-10T16:57:20.879Z,12.90
2017-10-10T16:59:49.301Z,12.90
2017-10-10T17:02:18.477Z,12.80
2017-10-10T17:04:46.908Z,12.80
2017-10-10T17:07:15.311Z,12.80
2017-10-10T17:09:46.144Z,12.80
2017-10-10T17:12:14.551Z,12.80
2017-10-10T17:14:43.071Z,12.80
2017-10-10T17:17:12.239Z,12.80
2017-10-10T17:19:41.516Z,12.80
2017-10-10T17:22:10.088Z,12.80
2017-10-10T17:24:38.468Z,12.80
2017-10-10T17:27:06.838Z,12.80
2017-10-10T17:29:35.284Z,12.80
2017-10-10T17:32:04.487Z,12.90
2017-10-10T17:34:32.987Z,12.80
2017-10-10T17:37:01.431Z,12.80
2017-10-10T17:39:30.576Z,12.80
2017-10-10T17:41:58.991Z,12.80
2017-10-10T17:44:27.398Z,12.80
2017-10-10T17:46:56.839Z,12.70
2017-10-10T17:49:25.224Z,12.70
2017-10-10T17:51:53.649Z,12.70
2017-10-10T17:54:23.108Z,12.70
2017-10-10T17:56:51.507Z,12.70
2017-10-10T17:59:20.258Z,12.70
2017-10-10T18:01:48.689Z,12.70
2017-10-10T18:04:17.095Z,12.60
2017-10-10T18:06:46.309Z,12.50
2017-10-10T18:09:14.736Z,12.50
2017-10-10T18:11:43.488Z,12.50
2017-10-10T18:14:11.880Z,12.50
2017-10-10T18:16:40.290Z,12.50
2017-10-10T18:19:08.710Z,12.40
2017-10-10T18:21:37.100Z,12.40
2017-10-10T18:24:05.524Z,12.40
2017-10-10T18:26:33.971Z,12.40
2017-10-10T18:29:02.463Z,12.40
2017-10-10T18:31:31.323Z,12.50
2017-10-10T18:33:59.715Z,12.50
2017-10-10T18:36:28.466Z,12.60
2017-10-10T18:38:56.895Z,12.70
2017-10-10T18:41:25.851Z,12.70
2017-10-10T18:43:54.462Z,12.60
2017-10-10T18:46:23.084Z,12.60
2017-10-10T18:48:52.653Z,12.50
2017-10-10T18:51:21.404Z,12.50
2017-10-10T18:53:50.126Z,12.60
2017-10-10T18:56:18.914Z,12.50
2017-10-10T18:58:48.521Z,12.50
2017-10-10T19:01:17.993Z,12.50
2017-10-10T19:03:46.501Z,12.50
2017-10-10T19:06:15.460Z,12.50
2017-10-10T19:08:44.977Z,12.50
2017-10-10T19:11:13.691Z,12.50
2017-10-10T19:13:43.451Z,12.50
2017-10-10T19:16:11.944Z,12.50
2017-10-10T19:18:40.448Z,12.50
2017-10-10T19:21:08.866Z,12.70
2017-10-10T19:23:37.286Z,12.70
2017-10-10T19:26:06.107Z,12.60
2017-10-10T19:28:34.555Z,12.40
2017-10-10T19:31:03.141Z,12.30
2017-10-10T19:33:31.551Z,12.20
2017-10-10T19:35:59.974Z,12.20
2017-10-10T19:38:29.186Z,12.00
2017-10-10T19:40:57.600Z,12.00
2017-10-10T19:43:26.091Z,12.00
2017-10-10T19:45:54.513Z,12.00
2017-10-10T19:48:23.676Z,12.00
2017-10-10T19:50:52.845Z,11.90
2017-10-10T19:53:21.230Z,12.00
2017-10-10T19:55:50.855Z,11.90
2017-10-10T19:58:20.219Z,11.90
2017-10-10T20:00:48.617Z,11.90
2017-10-10T20:03:18.919Z,11.80
2017-10-10T20:05:47.767Z,11.70
2017-10-10T20:08:18.815Z,11.70
2017-10-10T20:10:48.408Z,11.70
2017-10-10T20:13:17.316Z,11.70
2017-10-10T20:15:46.180Z,11.70
2017-10-10T20:18:14.922Z,11.70
2017-10-10T20:20:43.468Z,11.70
2017-10-10T20:23:11.847Z,11.70
2017-10-10T20:25:40.227Z,11.70
2017-10-10T20:28:08.633Z,11.70
2017-10-10T20:30:37.022Z,11.70
2017-10-10T20:33:05.935Z,11.70
2017-10-10T20:35:34.863Z,11.70
2017-10-10T20:38:03.276Z,11.80
2017-10-10T20:40:31.757Z,11.80
2017-10-10T20:43:00.173Z,11.80
2017-10-10T20:45:28.762Z,11.90
2017-10-10T20:47:57.155Z,11.80
2017-10-10T20:50:25.575Z,11.80
2017-10-10T20:52:53.998Z,11.80
2017-10-10T20:55:22.388Z,11.80
2017-10-10T20:57:50.946Z,11.80
2017-10-10T21:00:21.667Z,11.70
2017-10-10T21:02:50.087Z,11.80
2017-10-10T21:05:20.792Z,11.80
2017-10-10T21:07:49.786Z,11.80
2017-10-10T21:10:18.211Z,11.80
2017-10-10T21:12:46.856Z,11.80
2017-10-10T21:15:15.538Z,11.80
2017-10-10T21:17:43.923Z,11.80
2017-10-10T21:20:12.336Z,11.80
2017-10-10T21:22:40.748Z,11.80
2017-10-10T21:25:09.167Z,11.90
2017-10-10T21:27:37.947Z,11.90
2017-10-10T21:30:06.336Z,11.90
2017-10-10T21:32:34.801Z,11.90
2017-10-10T21:35:03.261Z,11.80
2017-10-10T21:37:31.712Z,11.70
2017-10-10T21:40:00.375Z,11.70
2017-10-10T21:42:29.571Z,11.60
2017-10-10T21:44:57.947Z,11.60
2017-10-10T21:47:26.422Z,11.50
2017-10-10T21:49:55.562Z,11.50
2017-10-10T21:52:24.735Z,11.40
2017-10-10T21:54:53.132Z,11.30
2017-10-10T21:57:22.587Z,11.20
2017-10-10T21:59:51.353Z,11.20
2017-10-10T22:02:19.759Z,11.20
2017-10-10T22:04:48.443Z,11.10
2017-10-10T22:07:16.820Z,11.10
2017-10-10T22:09:45.230Z,11.10
2017-10-10T22:12:13.637Z,11.10
2017-10-10T22:14:42.028Z,11.00
2017-10-10T22:17:10.531Z,11.00
2017-10-10T22:19:38.971Z,10.90
2017-10-10T22:22:08.143Z,10.90
2017-10-10T22:24:36.569Z,10.90
2017-10-10T22:27:04.949Z,10.90
2017-10-10T22:29:33.477Z,10.90
2017-10-10T22:32:01.888Z,10.80
2017-10-10T22:34:30.321Z,10.80
2017-10-10T22:36:58.826Z,10.80
2017-10-10T22:39:27.246Z,10.80
2017-10-10T22:41:55.669Z,10.90
2017-10-10T22:44:24.072Z,10.80
2017-10-10T22:46:53.230Z,10.90
2017-10-10T22:49:21.636Z,10.90
2017-10-10T22:51:50.026Z,10.90
2017-10-10T22:54:19.488Z,11.00
2017-10-10T22:56:47.891Z,11.00
2017-10-10T22:59:16.348Z,11.10
2017-10-10T23:01:44.760Z,11.10
2017-10-10T23:04:13.570Z,11.10
2017-10-10T23:06:42.619Z,11.10
2017-10-10T23:09:11.452Z,11.10
2017-10-10T23:11:40.197Z,11.10
2017-10-10T23:14:09.069Z,11.00
2017-10-10T23:16:37.836Z,10.90
2017-10-10T23:19:06.884Z,10.90
2017-10-10T23:21:35.747Z,10.90
2017-10-10T23:24:04.524Z,10.90
2017-10-10T23:26:33.516Z,10.90
2017-10-10T23:29:02.842Z,10.90
2017-10-10T23:31:33.045Z,10.80
2017-10-10T23:34:02.059Z,10.80
2017-10-10T23:36:32.617Z,10.80
2017-10-10T23:39:02.344Z,10.80
2017-10-10T23:41:31.305Z,10.80
2017-10-10T23:44:00.442Z,10.80
2017-10-10T23:46:29.213Z,10.80
2017-10-10T23:48:59.437Z,10.70
2017-10-10T23:51:28.278Z,10.70
2017-10-10T23:53:57.167Z,10.60
2017-10-10T23:56:26.483Z,10.60
2017-10-10T23:58:55.596Z,10.60
